Soldiers Field, Massachusetts
Current Conditions -  °F | °C
As of 12:54 AM on Wednesday 26 Nov 2014 (Local Time) from KBOS Reporting Station
Overcast Overcast  
Wind Chill: 50°   Ceiling: 20000
Heat Index: 50°   Visibility: 10mi
Dew Point: 28°   Wind: 7mph
Humidity: 43%   Direction: 270°W
Pressure: 30.13"   Gusts: NA
Location:  42.3579°N, 71.1176°W
Report Text: KBOS 260554Z 27006KT 10SM SCT130 OVC200 10/M02 A3013 RMK AO2 SLP203 T01001022 10122 20089 51018
Loading
Personal Weather Stations






























Interactive Weather Map New forecast layout! Learn more

10-Day Weather Forecast

Advertisements
Track Severe Weather on mobile